sensor_id;sensor_type;location;lat;lon;timestamp;pressure;altitude;pressure_sealevel;temperature;humidity
77192;BME280;66172;48.526;8.078;2023-02-15T00:01:41;101006.97;;;0.72;89.13
77192;BME280;66172;48.526;8.078;2023-02-15T00:04:08;101003.59;;;0.77;89.64
77192;BME280;66172;48.526;8.078;2023-02-15T00:06:34;100994.59;;;0.83;89.23
77192;BME280;66172;48.526;8.078;2023-02-15T00:09:02;100995.44;;;0.72;88.34
77192;BME280;66172;48.526;8.078;2023-02-15T00:11:29;100996.72;;;0.58;89.14
77192;BME280;66172;48.526;8.078;2023-02-15T00:14:19;100995.47;;;0.48;89.81
77192;BME280;66172;48.526;8.078;2023-02-15T00:16:45;100988.72;;;0.34;89.82
77192;BME280;66172;48.526;8.078;2023-02-15T00:19:12;100992.66;;;0.32;90.03
77192;BME280;66172;48.526;8.078;2023-02-15T00:21:38;100989.09;;;0.38;89.97
77192;BME280;66172;48.526;8.078;2023-02-15T00:24:07;100983.59;;;0.56;88.81
77192;BME280;66172;48.526;8.078;2023-02-15T00:26:33;100978.50;;;0.31;88.58
77192;BME280;66172;48.526;8.078;2023-02-15T00:29:00;100983.00;;;0.42;88.83
77192;BME280;66172;48.526;8.078;2023-02-15T00:31:27;100977.91;;;0.53;88.15
77192;BME280;66172;48.526;8.078;2023-02-15T00:33:53;100985.81;;;0.47;88.28
77192;BME280;66172;48.526;8.078;2023-02-15T00:36:19;100974.63;;;0.39;89.19
77192;BME280;66172;48.526;8.078;2023-02-15T00:38:45;100984.03;;;0.53;87.88
77192;BME280;66172;48.526;8.078;2023-02-15T00:41:11;100985.69;;;0.42;88.53
77192;BME280;66172;48.526;8.078;2023-02-15T00:43:37;100978.84;;;0.35;88.79
77192;BME280;66172;48.526;8.078;2023-02-15T00:46:04;100984.41;;;0.33;89.05
77192;BME280;66172;48.526;8.078;2023-02-15T00:48:31;100990.47;;;0.40;89.12
77192;BME280;66172;48.526;8.078;2023-02-15T00:50:58;100980.34;;;0.54;88.00
77192;BME280;66172;48.526;8.078;2023-02-15T00:53:25;100974.75;;;-0.03;89.49
77192;BME280;66172;48.526;8.078;2023-02-15T00:55:52;100975.59;;;0.10;89.17
77192;BME280;66172;48.526;8.078;2023-02-15T00:58:18;100978.25;;;0.21;89.03
77192;BME280;66172;48.526;8.078;2023-02-15T01:00:45;100973.38;;;0.30;89.25
77192;BME280;66172;48.526;8.078;2023-02-15T01:03:13;100976.03;;;0.30;88.71
77192;BME280;66172;48.526;8.078;2023-02-15T01:05:39;100977.31;;;0.16;88.72
77192;BME280;66172;48.526;8.078;2023-02-15T01:08:05;100970.13;;;-0.07;88.74
77192;BME280;66172;48.526;8.078;2023-02-15T01:10:32;100962.19;;;-0.25;89.78
77192;BME280;66172;48.526;8.078;2023-02-15T01:12:59;100971.03;;;-0.13;90.37
77192;BME280;66172;48.526;8.078;2023-02-15T01:15:25;100957.91;;;-0.03;89.83
77192;BME280;66172;48.526;8.078;2023-02-15T01:17:51;100952.69;;;0.14;89.54
77192;BME280;66172;48.526;8.078;2023-02-15T01:20:23;100956.28;;;-0.16;88.54
77192;BME280;66172;48.526;8.078;2023-02-15T01:22:50;100949.97;;;-0.33;89.41
77192;BME280;66172;48.526;8.078;2023-02-15T01:25:16;100960.34;;;-0.25;90.19
77192;BME280;66172;48.526;8.078;2023-02-15T01:27:42;100954.28;;;-0.09;89.35
77192;BME280;66172;48.526;8.078;2023-02-15T01:30:09;100950.94;;;-0.04;88.38
77192;BME280;66172;48.526;8.078;2023-02-15T01:32:35;100955.91;;;0.04;88.13
77192;BME280;66172;48.526;8.078;2023-02-15T01:35:02;100950.69;;;-0.03;88.89
77192;BME280;66172;48.526;8.078;2023-02-15T01:37:30;100952.00;;;0.07;88.33
77192;BME280;66172;48.526;8.078;2023-02-15T01:39:57;100956.16;;;0.14;88.18
77192;BME280;66172;48.526;8.078;2023-02-15T01:42:24;100941.88;;;0.20;88.46
77192;BME280;66172;48.526;8.078;2023-02-15T01:44:58;100956.84;;;0.21;88.13
77192;BME280;66172;48.526;8.078;2023-02-15T01:50:09;100963.72;;;0.29;88.63
77192;BME280;66172;48.526;8.078;2023-02-15T01:52:37;100957.88;;;0.32;87.78
77192;BME280;66172;48.526;8.078;2023-02-15T01:55:06;100965.22;;;0.36;88.54
77192;BME280;66172;48.526;8.078;2023-02-15T01:57:33;100952.19;;;0.40;87.86
77192;BME280;66172;48.526;8.078;2023-02-15T02:00:02;100949.03;;;0.43;88.21
77192;BME280;66172;48.526;8.078;2023-02-15T02:02:29;100953.34;;;0.44;87.65
77192;BME280;66172;48.526;8.078;2023-02-15T02:05:00;100950.69;;;0.44;87.52
77192;BME280;66172;48.526;8.078;2023-02-15T02:07:34;100953.13;;;0.45;87.77
77192;BME280;66172;48.526;8.078;2023-02-15T02:10:03;100966.50;;;0.45;87.83
77192;BME280;66172;48.526;8.078;2023-02-15T02:12:29;100943.47;;;0.44;87.69
77192;BME280;66172;48.526;8.078;2023-02-15T02:14:56;100949.44;;;0.35;87.27
77192;BME280;66172;48.526;8.078;2023-02-15T02:36:43;100928.88;;;-0.53;89.79
77192;BME280;66172;48.526;8.078;2023-02-15T02:39:35;100932.59;;;-0.65;89.83
77192;BME280;66172;48.526;8.078;2023-02-15T02:42:28;100923.97;;;-0.79;90.22
77192;BME280;66172;48.526;8.078;2023-02-15T02:47:38;100921.13;;;-0.95;91.39
77192;BME280;66172;48.526;8.078;2023-02-15T02:50:08;100912.16;;;-1.01;91.43
77192;BME280;66172;48.526;8.078;2023-02-15T02:52:40;100920.69;;;-1.11;91.59
77192;BME280;66172;48.526;8.078;2023-02-15T02:55:11;100907.47;;;-0.76;91.24
77192;BME280;66172;48.526;8.078;2023-02-15T02:57:46;100901.66;;;-0.73;90.41
77192;BME280;66172;48.526;8.078;2023-02-15T03:00:17;100905.72;;;-0.82;90.19
77192;BME280;66172;48.526;8.078;2023-02-15T03:02:45;100909.28;;;-0.88;90.77
77192;BME280;66172;48.526;8.078;2023-02-15T03:05:17;100910.66;;;-0.97;90.74
77192;BME280;66172;48.526;8.078;2023-02-15T03:07:49;100910.44;;;-0.95;91.36
77192;BME280;66172;48.526;8.078;2023-02-15T03:10:18;100904.75;;;-0.99;91.32
77192;BME280;66172;48.526;8.078;2023-02-15T03:12:46;100907.31;;;-0.92;91.01
77192;BME280;66172;48.526;8.078;2023-02-15T03:15:22;100911.94;;;-0.88;91.54
77192;BME280;66172;48.526;8.078;2023-02-15T03:17:54;100913.00;;;-0.89;90.79
77192;BME280;66172;48.526;8.078;2023-02-15T03:20:27;100917.78;;;-0.79;90.98
77192;BME280;66172;48.526;8.078;2023-02-15T03:22:58;100915.84;;;-0.72;90.79
77192;BME280;66172;48.526;8.078;2023-02-15T03:25:29;100916.09;;;-0.62;90.84
77192;BME280;66172;48.526;8.078;2023-02-15T03:28:10;100918.31;;;-0.59;90.44
77192;BME280;66172;48.526;8.078;2023-02-15T03:30:37;100918.34;;;-0.47;90.43
77192;BME280;66172;48.526;8.078;2023-02-15T03:33:06;100913.84;;;-0.35;90.22
77192;BME280;66172;48.526;8.078;2023-02-15T03:35:44;100913.47;;;-0.27;90.58
77192;BME280;66172;48.526;8.078;2023-02-15T03:38:17;100917.56;;;-0.25;89.97
77192;BME280;66172;48.526;8.078;2023-02-15T03:40:47;100923.81;;;-0.31;90.13
77192;BME280;66172;48.526;8.078;2023-02-15T03:43:49;100923.00;;;-0.31;89.00
77192;BME280;66172;48.526;8.078;2023-02-15T03:46:22;100919.63;;;-0.50;88.96
77192;BME280;66172;48.526;8.078;2023-02-15T03:48:53;100920.97;;;-0.59;89.27
77192;BME280;66172;48.526;8.078;2023-02-15T03:51:25;100923.06;;;-0.61;89.87
77192;BME280;66172;48.526;8.078;2023-02-15T03:54:07;100921.09;;;-0.66;90.03
77192;BME280;66172;48.526;8.078;2023-02-15T03:56:36;100916.19;;;-0.69;90.25
77192;BME280;66172;48.526;8.078;2023-02-15T03:59:03;100917.53;;;-0.48;89.49
77192;BME280;66172;48.526;8.078;2023-02-15T04:02:04;100917.47;;;-0.71;90.03
77192;BME280;66172;48.526;8.078;2023-02-15T04:04:38;100916.59;;;-0.54;89.71
77192;BME280;66172;48.526;8.078;2023-02-15T04:07:07;100917.59;;;-0.78;88.57
77192;BME280;66172;48.526;8.078;2023-02-15T04:09:33;100917.94;;;-1.04;89.59
77192;BME280;66172;48.526;8.078;2023-02-15T04:12:17;100906.69;;;-1.06;89.94
77192;BME280;66172;48.526;8.078;2023-02-15T04:14:43;100912.38;;;-1.03;90.38
77192;BME280;66172;48.526;8.078;2023-02-15T04:17:28;100913.28;;;-1.09;90.19
77192;BME280;66172;48.526;8.078;2023-02-15T04:19:54;100914.25;;;-1.03;90.75
77192;BME280;66172;48.526;8.078;2023-02-15T04:22:38;100919.25;;;-0.95;90.33
77192;BME280;66172;48.526;8.078;2023-02-15T04:25:22;100920.66;;;-0.92;90.45
77192;BME280;66172;48.526;8.078;2023-02-15T04:27:50;100922.81;;;-1.01;90.53
77192;BME280;66172;48.526;8.078;2023-02-15T04:30:19;100917.53;;;-0.89;90.48
77192;BME280;66172;48.526;8.078;2023-02-15T04:32:45;100914.44;;;-1.05;91.10
77192;BME280;66172;48.526;8.078;2023-02-15T04:35:12;100905.34;;;-1.15;91.51
77192;BME280;66172;48.526;8.078;2023-02-15T04:37:39;100907.81;;;-1.14;91.55
77192;BME280;66172;48.526;8.078;2023-02-15T04:40:06;100904.06;;;-1.24;92.07
77192;BME280;66172;48.526;8.078;2023-02-15T04:42:32;100902.88;;;-1.28;92.06
77192;BME280;66172;48.526;8.078;2023-02-15T04:44:58;100903.31;;;-1.31;92.31
77192;BME280;66172;48.526;8.078;2023-02-15T04:47:24;100893.31;;;-1.36;92.84
77192;BME280;66172;48.526;8.078;2023-02-15T04:49:50;100894.50;;;-1.32;92.67
77192;BME280;66172;48.526;8.078;2023-02-15T04:52:16;100896.88;;;-1.24;92.61
77192;BME280;66172;48.526;8.078;2023-02-15T04:54:44;100894.94;;;-1.35;93.05
77192;BME280;66172;48.526;8.078;2023-02-15T04:57:10;100893.69;;;-1.32;93.30
77192;BME280;66172;48.526;8.078;2023-02-15T04:59:36;100892.94;;;-1.39;92.84
77192;BME280;66172;48.526;8.078;2023-02-15T05:02:02;100901.97;;;-1.40;92.89
77192;BME280;66172;48.526;8.078;2023-02-15T05:04:28;100892.28;;;-1.35;93.04
77192;BME280;66172;48.526;8.078;2023-02-15T05:06:54;100897.38;;;-1.33;92.83
77192;BME280;66172;48.526;8.078;2023-02-15T05:09:20;100900.41;;;-1.30;93.01
77192;BME280;66172;48.526;8.078;2023-02-15T05:11:46;100899.19;;;-1.16;92.27
77192;BME280;66172;48.526;8.078;2023-02-15T05:14:12;100901.91;;;-1.04;91.16
77192;BME280;66172;48.526;8.078;2023-02-15T05:16:38;100907.00;;;-1.14;90.74
77192;BME280;66172;48.526;8.078;2023-02-15T05:19:04;100911.31;;;-1.13;91.14
77192;BME280;66172;48.526;8.078;2023-02-15T05:21:31;100909.19;;;-1.11;91.13
77192;BME280;66172;48.526;8.078;2023-02-15T05:23:57;100906.22;;;-1.03;91.57
77192;BME280;66172;48.526;8.078;2023-02-15T05:26:24;100905.69;;;-0.93;91.37
77192;BME280;66172;48.526;8.078;2023-02-15T05:29:09;100918.72;;;-0.85;91.22
77192;BME280;66172;48.526;8.078;2023-02-15T05:31:36;100918.25;;;-0.82;91.06
77192;BME280;66172;48.526;8.078;2023-02-15T05:34:02;100913.50;;;-0.80;91.01
77192;BME280;66172;48.526;8.078;2023-02-15T05:36:28;100915.34;;;-0.81;90.56
77192;BME280;66172;48.526;8.078;2023-02-15T05:38:54;100920.69;;;-0.81;90.82
77192;BME280;66172;48.526;8.078;2023-02-15T05:41:20;100914.78;;;-0.83;90.33
77192;BME280;66172;48.526;8.078;2023-02-15T05:43:46;100916.13;;;-0.92;90.70
77192;BME280;66172;48.526;8.078;2023-02-15T05:46:12;100919.88;;;-1.11;91.13
77192;BME280;66172;48.526;8.078;2023-02-15T05:48:38;100920.97;;;-1.30;90.59
77192;BME280;66172;48.526;8.078;2023-02-15T05:51:09;100922.16;;;-1.44;91.47
77192;BME280;66172;48.526;8.078;2023-02-15T05:53:38;100923.19;;;-1.45;91.46
77192;BME280;66172;48.526;8.078;2023-02-15T05:56:05;100920.72;;;-1.47;91.26
77192;BME280;66172;48.526;8.078;2023-02-15T05:58:34;100920.38;;;-1.51;91.47
77192;BME280;66172;48.526;8.078;2023-02-15T06:01:07;100922.22;;;-1.51;91.96
77192;BME280;66172;48.526;8.078;2023-02-15T06:03:33;100918.44;;;-1.43;91.60
77192;BME280;66172;48.526;8.078;2023-02-15T06:05:59;100916.66;;;-1.49;90.91
77192;BME280;66172;48.526;8.078;2023-02-15T06:08:25;100921.41;;;-1.52;91.24
77192;BME280;66172;48.526;8.078;2023-02-15T06:10:51;100927.16;;;-1.36;91.35
77192;BME280;66172;48.526;8.078;2023-02-15T06:13:17;100928.59;;;-1.52;91.30
77192;BME280;66172;48.526;8.078;2023-02-15T06:15:43;100927.13;;;-1.48;91.55
77192;BME280;66172;48.526;8.078;2023-02-15T06:18:09;100929.91;;;-1.43;91.07
77192;BME280;66172;48.526;8.078;2023-02-15T06:20:35;100928.72;;;-1.47;91.50
77192;BME280;66172;48.526;8.078;2023-02-15T06:23:00;100936.97;;;-1.48;91.48
77192;BME280;66172;48.526;8.078;2023-02-15T06:25:26;100937.19;;;-1.50;91.66
77192;BME280;66172;48.526;8.078;2023-02-15T06:27:52;100935.34;;;-1.31;90.82
77192;BME280;66172;48.526;8.078;2023-02-15T06:30:18;100949.50;;;-1.31;91.17
77192;BME280;66172;48.526;8.078;2023-02-15T06:32:44;100950.44;;;-1.43;91.22
77192;BME280;66172;48.526;8.078;2023-02-15T06:35:10;100951.53;;;-1.51;91.31
77192;BME280;66172;48.526;8.078;2023-02-15T06:37:36;100946.38;;;-1.46;91.27
77192;BME280;66172;48.526;8.078;2023-02-15T06:40:02;100937.72;;;-1.60;91.55
77192;BME280;66172;48.526;8.078;2023-02-15T06:42:29;100936.34;;;-1.69;91.42
77192;BME280;66172;48.526;8.078;2023-02-15T06:44:55;100940.00;;;-1.63;91.64
77192;BME280;66172;48.526;8.078;2023-02-15T06:47:21;100937.41;;;-1.70;91.50
77192;BME280;66172;48.526;8.078;2023-02-15T06:49:47;100943.31;;;-1.68;91.91
77192;BME280;66172;48.526;8.078;2023-02-15T06:52:13;100940.81;;;-1.63;91.44
77192;BME280;66172;48.526;8.078;2023-02-15T06:54:39;100945.06;;;-1.55;91.85
77192;BME280;66172;48.526;8.078;2023-02-15T06:57:05;100943.63;;;-1.58;91.01
77192;BME280;66172;48.526;8.078;2023-02-15T06:59:30;100948.09;;;-1.52;90.57
77192;BME280;66172;48.526;8.078;2023-02-15T07:01:56;100954.38;;;-1.64;90.41
77192;BME280;66172;48.526;8.078;2023-02-15T07:04:22;100947.47;;;-1.72;90.09
77192;BME280;66172;48.526;8.078;2023-02-15T07:06:48;100947.63;;;-1.67;89.90
77192;BME280;66172;48.526;8.078;2023-02-15T07:09:14;100949.31;;;-1.72;89.43
77192;BME280;66172;48.526;8.078;2023-02-15T07:11:40;100946.22;;;-1.69;90.44
77192;BME280;66172;48.526;8.078;2023-02-15T07:14:24;100949.56;;;-1.37;89.57
77192;BME280;66172;48.526;8.078;2023-02-15T07:16:50;100948.06;;;-1.33;89.10
77192;BME280;66172;48.526;8.078;2023-02-15T07:19:16;100949.78;;;-1.39;88.55
77192;BME280;66172;48.526;8.078;2023-02-15T07:21:41;100954.22;;;-1.33;88.75
77192;BME280;66172;48.526;8.078;2023-02-15T07:24:07;100949.41;;;-1.24;88.83
77192;BME280;66172;48.526;8.078;2023-02-15T07:26:33;100952.44;;;-1.21;88.51
77192;BME280;66172;48.526;8.078;2023-02-15T07:28:59;100948.25;;;-0.98;88.41
77192;BME280;66172;48.526;8.078;2023-02-15T07:31:25;100951.94;;;-0.70;87.97
77192;BME280;66172;48.526;8.078;2023-02-15T07:33:51;100948.03;;;-0.56;86.67
77192;BME280;66172;48.526;8.078;2023-02-15T07:36:17;100952.41;;;-0.43;86.93
77192;BME280;66172;48.526;8.078;2023-02-15T07:38:43;100951.00;;;-0.34;85.49
77192;BME280;66172;48.526;8.078;2023-02-15T07:41:13;100948.94;;;-0.20;85.21
77192;BME280;66172;48.526;8.078;2023-02-15T07:43:41;100944.19;;;-0.18;83.72
77192;BME280;66172;48.526;8.078;2023-02-15T07:46:10;100946.50;;;-0.22;84.48
77192;BME280;66172;48.526;8.078;2023-02-15T07:48:38;100955.69;;;-0.18;84.46
77192;BME280;66172;48.526;8.078;2023-02-15T07:51:06;100947.31;;;-0.10;84.31
77192;BME280;66172;48.526;8.078;2023-02-15T07:53:33;100941.94;;;-0.33;85.04
77192;BME280;66172;48.526;8.078;2023-02-15T07:56:00;100941.00;;;-0.50;85.17
77192;BME280;66172;48.526;8.078;2023-02-15T07:58:26;100942.09;;;-0.99;86.35
77192;BME280;66172;48.526;8.078;2023-02-15T08:01:13;100938.38;;;-0.98;86.58
77192;BME280;66172;48.526;8.078;2023-02-15T08:03:39;100928.53;;;-0.97;86.14
77192;BME280;66172;48.526;8.078;2023-02-15T08:06:05;100926.56;;;-0.90;86.68
77192;BME280;66172;48.526;8.078;2023-02-15T08:08:33;100923.19;;;-0.97;87.21
77192;BME280;66172;48.526;8.078;2023-02-15T08:11:06;100922.78;;;-0.83;87.62
77192;BME280;66172;48.526;8.078;2023-02-15T08:16:37;100917.66;;;0.04;84.00
77192;BME280;66172;48.526;8.078;2023-02-15T08:19:10;100909.19;;;-0.05;83.61
77192;BME280;66172;48.526;8.078;2023-02-15T08:21:38;100910.59;;;0.09;83.45
77192;BME280;66172;48.526;8.078;2023-02-15T08:24:06;100916.97;;;-0.27;83.76
77192;BME280;66172;48.526;8.078;2023-02-15T08:26:32;100914.34;;;-0.04;82.82
77192;BME280;66172;48.526;8.078;2023-02-15T08:28:59;100919.06;;;0.29;81.55
77192;BME280;66172;48.526;8.078;2023-02-15T08:31:25;100914.00;;;0.96;80.78
77192;BME280;66172;48.526;8.078;2023-02-15T08:33:53;100911.09;;;1.59;77.52
77192;BME280;66172;48.526;8.078;2023-02-15T08:36:22;100921.63;;;2.76;74.49
77192;BME280;66172;48.526;8.078;2023-02-15T08:38:48;100926.91;;;3.41;72.88
77192;BME280;66172;48.526;8.078;2023-02-15T08:41:22;100923.66;;;3.39;71.82
77192;BME280;66172;48.526;8.078;2023-02-15T08:43:52;100916.97;;;3.15;72.56
77192;BME280;66172;48.526;8.078;2023-02-15T08:46:20;100912.75;;;2.97;72.96
77192;BME280;66172;48.526;8.078;2023-02-15T08:48:46;100913.75;;;2.69;73.18
77192;BME280;66172;48.526;8.078;2023-02-15T08:51:14;100918.25;;;2.42;74.56
77192;BME280;66172;48.526;8.078;2023-02-15T08:53:44;100911.81;;;2.21;74.79
77192;BME280;66172;48.526;8.078;2023-02-15T08:56:11;100905.53;;;2.16;76.24
77192;BME280;66172;48.526;8.078;2023-02-15T08:58:37;100906.16;;;2.23;76.08
77192;BME280;66172;48.526;8.078;2023-02-15T09:03:36;100896.66;;;1.93;76.52
77192;BME280;66172;48.526;8.078;2023-02-15T09:06:02;100894.69;;;1.89;77.97
77192;BME280;66172;48.526;8.078;2023-02-15T09:08:28;100897.34;;;2.06;78.06
77192;BME280;66172;48.526;8.078;2023-02-15T09:11:07;100885.19;;;2.20;76.93
77192;BME280;66172;48.526;8.078;2023-02-15T09:13:34;100890.66;;;2.25;77.38
77192;BME280;66172;48.526;8.078;2023-02-15T09:16:02;100885.09;;;2.31;76.99
77192;BME280;66172;48.526;8.078;2023-02-15T09:18:30;100890.91;;;2.45;75.94
77192;BME280;66172;48.526;8.078;2023-02-15T09:20:56;100883.16;;;2.48;75.77
77192;BME280;66172;48.526;8.078;2023-02-15T09:23:22;100891.03;;;2.77;75.39
77192;BME280;66172;48.526;8.078;2023-02-15T09:25:48;100891.72;;;2.67;75.82
77192;BME280;66172;48.526;8.078;2023-02-15T09:28:14;100879.53;;;2.81;75.37
77192;BME280;66172;48.526;8.078;2023-02-15T09:30:40;100885.69;;;2.82;75.46
77192;BME280;66172;48.526;8.078;2023-02-15T09:33:05;100881.00;;;2.94;74.91
77192;BME280;66172;48.526;8.078;2023-02-15T09:35:32;100879.41;;;2.71;74.75
77192;BME280;66172;48.526;8.078;2023-02-15T09:37:58;100878.84;;;2.69;76.07
77192;BME280;66172;48.526;8.078;2023-02-15T09:40:24;100879.13;;;2.94;75.93
77192;BME280;66172;48.526;8.078;2023-02-15T09:48:05;100879.53;;;3.08;74.74
77192;BME280;66172;48.526;8.078;2023-02-15T09:59:45;100898.66;;;2.41;76.38
77192;BME280;66172;48.526;8.078;2023-02-15T10:02:35;100894.34;;;2.40;76.97
77192;BME280;66172;48.526;8.078;2023-02-15T10:05:13;100905.25;;;2.34;78.20
77192;BME280;66172;48.526;8.078;2023-02-15T10:14:14;100899.91;;;2.56;78.12
77192;BME280;66172;48.526;8.078;2023-02-15T10:16:35;100893.44;;;2.78;76.70
77192;BME280;66172;48.526;8.078;2023-02-15T10:19:28;100898.16;;;2.88;76.69
77192;BME280;66172;48.526;8.078;2023-02-15T10:25:16;100906.63;;;3.01;75.96
77192;BME280;66172;48.526;8.078;2023-02-15T10:27:48;100895.13;;;3.06;75.43
77192;BME280;66172;48.526;8.078;2023-02-15T10:30:18;100895.34;;;3.05;75.55
77192;BME280;66172;48.526;8.078;2023-02-15T10:32:59;100891.03;;;3.03;76.42
77192;BME280;66172;48.526;8.078;2023-02-15T10:38:22;100888.06;;;3.27;76.36
77192;BME280;66172;48.526;8.078;2023-02-15T10:41:00;100886.63;;;3.46;75.20
77192;BME280;66172;48.526;8.078;2023-02-15T10:46:27;100889.50;;;3.39;74.70
77192;BME280;66172;48.526;8.078;2023-02-15T10:52:13;100886.16;;;3.54;74.31
77192;BME280;66172;48.526;8.078;2023-02-15T10:57:33;100882.78;;;3.74;74.42
77192;BME280;66172;48.526;8.078;2023-02-15T11:00:19;100876.50;;;3.95;72.96
77192;BME280;66172;48.526;8.078;2023-02-15T11:03:12;100870.81;;;3.86;73.00
77192;BME280;66172;48.526;8.078;2023-02-15T11:05:57;100869.56;;;4.04;72.47
77192;BME280;66172;48.526;8.078;2023-02-15T11:08:31;100854.53;;;4.13;72.60
77192;BME280;66172;48.526;8.078;2023-02-15T11:11:01;100858.91;;;4.24;73.25
77192;BME280;66172;48.526;8.078;2023-02-15T11:13:32;100843.84;;;4.33;72.23
77192;BME280;66172;48.526;8.078;2023-02-15T11:16:08;100848.75;;;4.41;72.36
77192;BME280;66172;48.526;8.078;2023-02-15T11:18:39;100828.38;;;4.66;71.35
77192;BME280;66172;48.526;8.078;2023-02-15T11:21:13;100822.22;;;4.80;70.59
77192;BME280;66172;48.526;8.078;2023-02-15T11:23:44;100818.72;;;4.85;70.43
77192;BME280;66172;48.526;8.078;2023-02-15T11:26:21;100816.06;;;5.05;70.20
77192;BME280;66172;48.526;8.078;2023-02-15T11:28:58;100804.72;;;5.38;68.77
77192;BME280;66172;48.526;8.078;2023-02-15T11:31:26;100801.75;;;5.35;67.62
77192;BME280;66172;48.526;8.078;2023-02-15T11:34:01;100797.19;;;5.30;68.67
77192;BME280;66172;48.526;8.078;2023-02-15T11:36:43;100803.66;;;5.14;69.34
77192;BME280;66172;48.526;8.078;2023-02-15T11:39:12;100803.13;;;5.37;69.52
77192;BME280;66172;48.526;8.078;2023-02-15T11:41:47;100790.97;;;5.35;69.58
77192;BME280;66172;48.526;8.078;2023-02-15T11:44:26;100792.34;;;5.37;69.52
77192;BME280;66172;48.526;8.078;2023-02-15T11:46:56;100788.28;;;5.10;70.93
77192;BME280;66172;48.526;8.078;2023-02-15T11:49:27;100785.31;;;5.11;70.49
77192;BME280;66172;48.526;8.078;2023-02-15T11:51:55;100787.47;;;5.04;70.67
77192;BME280;66172;48.526;8.078;2023-02-15T11:54:27;100777.50;;;4.94;71.12
77192;BME280;66172;48.526;8.078;2023-02-15T11:57:10;100780.69;;;4.66;71.73
77192;BME280;66172;48.526;8.078;2023-02-15T11:59:39;100777.75;;;4.68;71.83
77192;BME280;66172;48.526;8.078;2023-02-15T12:02:19;100775.84;;;4.73;71.80
77192;BME280;66172;48.526;8.078;2023-02-15T12:04:58;100769.94;;;4.96;71.24
77192;BME280;66172;48.526;8.078;2023-02-15T12:07:28;100764.03;;;4.94;71.37
77192;BME280;66172;48.526;8.078;2023-02-15T12:10:10;100769.69;;;5.13;70.66
77192;BME280;66172;48.526;8.078;2023-02-15T12:12:43;100761.88;;;5.17;70.77
77192;BME280;66172;48.526;8.078;2023-02-15T12:15:10;100761.03;;;4.86;71.72
77192;BME280;66172;48.526;8.078;2023-02-15T12:17:54;100761.63;;;5.03;71.15
77192;BME280;66172;48.526;8.078;2023-02-15T12:20:22;100759.44;;;4.85;72.27
77192;BME280;66172;48.526;8.078;2023-02-15T12:23:01;100756.47;;;5.22;71.42
77192;BME280;66172;48.526;8.078;2023-02-15T12:25:48;100750.25;;;5.36;70.05
77192;BME280;66172;48.526;8.078;2023-02-15T12:28:42;100749.19;;;5.37;70.44
77192;BME280;66172;48.526;8.078;2023-02-15T12:31:23;100749.41;;;5.61;69.80
77192;BME280;66172;48.526;8.078;2023-02-15T12:33:52;100743.50;;;5.44;70.32
77192;BME280;66172;48.526;8.078;2023-02-15T12:36:21;100747.00;;;5.54;69.80
77192;BME280;66172;48.526;8.078;2023-02-15T12:42:14;100753.78;;;4.91;72.34
77192;BME280;66172;48.526;8.078;2023-02-15T12:44:35;100751.88;;;4.77;73.54
77192;BME280;66172;48.526;8.078;2023-02-15T12:49:32;100748.66;;;4.90;72.87
77192;BME280;66172;48.526;8.078;2023-02-15T12:52:01;100737.28;;;4.58;73.94
77192;BME280;66172;48.526;8.078;2023-02-15T12:54:37;100730.84;;;4.69;73.15
77192;BME280;66172;48.526;8.078;2023-02-15T12:59:48;100727.63;;;4.87;73.55
77192;BME280;66172;48.526;8.078;2023-02-15T13:02:26;100722.53;;;4.85;73.79
77192;BME280;66172;48.526;8.078;2023-02-15T13:04:53;100721.16;;;5.18;72.83
77192;BME280;66172;48.526;8.078;2023-02-15T13:07:19;100716.28;;;5.30;71.95
77192;BME280;66172;48.526;8.078;2023-02-15T13:09:46;100707.06;;;5.46;71.11
77192;BME280;66172;48.526;8.078;2023-02-15T13:12:24;100706.25;;;5.66;70.63
77192;BME280;66172;48.526;8.078;2023-02-15T13:14:55;100708.69;;;5.52;70.25
77192;BME280;66172;48.526;8.078;2023-02-15T13:17:26;100703.03;;;5.59;70.74
77192;BME280;66172;48.526;8.078;2023-02-15T13:20:06;100706.06;;;5.27;71.42
77192;BME280;66172;48.526;8.078;2023-02-15T13:22:45;100702.03;;;5.04;72.39
77192;BME280;66172;48.526;8.078;2023-02-15T13:25:15;100696.63;;;5.04;72.40
77192;BME280;66172;48.526;8.078;2023-02-15T13:27:44;100698.00;;;5.02;72.32
77192;BME280;66172;48.526;8.078;2023-02-15T13:30:26;100697.16;;;4.96;72.85
77192;BME280;66172;48.526;8.078;2023-02-15T13:32:58;100698.00;;;4.87;73.51
77192;BME280;66172;48.526;8.078;2023-02-15T13:35:28;100709.31;;;4.99;73.02
77192;BME280;66172;48.526;8.078;2023-02-15T13:41:05;100702.28;;;5.08;72.81
77192;BME280;66172;48.526;8.078;2023-02-15T13:51:38;100696.13;;;4.92;72.82
77192;BME280;66172;48.526;8.078;2023-02-15T13:57:23;100702.84;;;4.90;73.16
77192;BME280;66172;48.526;8.078;2023-02-15T14:03:04;100694.47;;;5.12;72.74
77192;BME280;66172;48.526;8.078;2023-02-15T14:05:56;100695.84;;;5.09;72.22
77192;BME280;66172;48.526;8.078;2023-02-15T14:14:11;100691.25;;;4.59;75.26
77192;BME280;66172;48.526;8.078;2023-02-15T14:17:05;100692.34;;;4.78;74.14
77192;BME280;66172;48.526;8.078;2023-02-15T14:22:30;100691.78;;;4.76;74.87
77192;BME280;66172;48.526;8.078;2023-02-15T14:30:22;100689.91;;;4.87;74.58
77192;BME280;66172;48.526;8.078;2023-02-15T14:32:55;100687.75;;;4.94;73.81
77192;BME280;66172;48.526;8.078;2023-02-15T14:35:26;100683.16;;;4.94;73.91
77192;BME280;66172;48.526;8.078;2023-02-15T14:38:07;100679.66;;;4.79;74.41
77192;BME280;66172;48.526;8.078;2023-02-15T14:41:02;100685.59;;;4.86;74.43
77192;BME280;66172;48.526;8.078;2023-02-15T14:46:25;100686.13;;;4.93;74.42
77192;BME280;66172;48.526;8.078;2023-02-15T14:48:59;100690.97;;;4.86;74.86
77192;BME280;66172;48.526;8.078;2023-02-15T14:51:54;100687.75;;;4.79;75.43
77192;BME280;66172;48.526;8.078;2023-02-15T14:59:45;100693.41;;;4.57;75.75
77192;BME280;66172;48.526;8.078;2023-02-15T15:04:43;100688.78;;;4.37;76.75
77192;BME280;66172;48.526;8.078;2023-02-15T15:07:37;100692.03;;;4.39;76.88
77192;BME280;66172;48.526;8.078;2023-02-15T15:12:54;100692.81;;;4.25;77.60